createdAt,value
2018-09-02T00:02:14.035Z,6.10
2018-09-02T00:04:42.480Z,6.40
2018-09-02T00:07:10.968Z,5.90
2018-09-02T00:09:39.430Z,6.00
2018-09-02T00:12:08.892Z,5.70
2018-09-02T00:14:37.308Z,6.07
2018-09-02T00:17:05.858Z,5.00
2018-09-02T00:19:34.349Z,5.60
2018-09-02T00:22:03.804Z,5.93
2018-09-02T00:24:32.331Z,5.70
2018-09-02T00:27:00.748Z,6.50
2018-09-02T00:29:29.211Z,5.43
2018-09-02T00:31:58.703Z,5.43
2018-09-02T00:34:27.130Z,5.67
2018-09-02T00:36:55.606Z,4.77
2018-09-02T00:39:24.012Z,5.00
2018-09-02T00:41:54.315Z,5.20
2018-09-02T00:44:23.375Z,4.43
2018-09-02T00:46:51.934Z,4.87
2018-09-02T00:49:20.639Z,4.57
2018-09-02T00:51:50.152Z,4.40
2018-09-02T00:54:18.653Z,4.67
2018-09-02T00:56:47.307Z,4.67
2018-09-02T00:59:15.899Z,4.90
2018-09-02T01:01:44.281Z,4.30
2018-09-02T01:04:12.711Z,4.97
2018-09-02T01:06:41.243Z,4.83
2018-09-02T01:10:13.251Z,4.60
2018-09-02T01:12:42.799Z,4.87
2018-09-02T01:15:11.300Z,4.50
2018-09-02T01:17:40.150Z,4.40
2018-09-02T01:20:09.046Z,4.70
2018-09-02T01:22:38.515Z,5.03
2018-09-02T01:25:07.032Z,4.90
2018-09-02T01:27:35.580Z,4.93
2018-09-02T01:30:04.111Z,4.70
2018-09-02T01:32:32.662Z,5.67
2018-09-02T01:35:01.105Z,4.73
2018-09-02T01:37:29.588Z,5.00
2018-09-02T01:39:58.055Z,4.93
2018-09-02T01:42:27.651Z,4.80
2018-09-02T01:44:56.138Z,5.60
2018-09-02T01:47:24.689Z,6.20
2018-09-02T01:49:53.721Z,5.57
2018-09-02T01:52:24.033Z,5.70
2018-09-02T01:54:53.065Z,6.00
2018-09-02T01:57:22.147Z,5.70
2018-09-02T01:59:50.786Z,5.53
2018-09-02T02:02:19.276Z,6.77
2018-09-02T02:04:47.737Z,6.77
2018-09-02T02:07:16.264Z,8.23
2018-09-02T02:09:44.715Z,6.63
2018-09-02T02:12:14.241Z,7.57
2018-09-02T02:14:42.737Z,7.60
2018-09-02T02:17:11.363Z,8.27
2018-09-02T02:19:39.914Z,8.80
2018-09-02T02:22:08.465Z,8.57
2018-09-02T02:24:36.931Z,8.60
2018-09-02T02:27:05.524Z,9.00
2018-09-02T02:29:34.069Z,8.43
2018-09-02T02:32:03.896Z,8.23
2018-09-02T02:34:32.336Z,8.13
2018-09-02T02:37:00.882Z,7.77
2018-09-02T02:39:29.384Z,8.90
2018-09-02T02:41:58.975Z,8.73
2018-09-02T02:44:27.376Z,8.53
2018-09-02T02:46:55.761Z,8.73
2018-09-02T02:49:24.234Z,8.57
2018-09-02T02:51:53.298Z,8.87
2018-09-02T02:54:22.400Z,8.27
2018-09-02T02:56:50.847Z,8.43
2018-09-02T02:59:19.358Z,8.40
2018-09-02T03:01:48.847Z,8.37
2018-09-02T03:04:17.279Z,8.80
2018-09-02T03:06:45.804Z,8.20
2018-09-02T03:09:14.216Z,8.37
2018-09-02T03:11:42.687Z,7.63
2018-09-02T03:14:11.562Z,8.43
2018-09-02T03:16:40.344Z,8.00
2018-09-02T03:19:09.252Z,7.83
2018-09-02T03:21:37.723Z,7.30
2018-09-02T03:24:06.487Z,8.47
2018-09-02T03:26:34.952Z,7.37
2018-09-02T03:29:03.660Z,7.20
2018-09-02T03:31:32.158Z,7.40
2018-09-02T03:34:00.574Z,7.60
2018-09-02T03:36:29.090Z,8.00
2018-09-02T03:38:57.544Z,7.17
2018-09-02T03:41:26.046Z,7.57
2018-09-02T03:43:55.537Z,7.30
2018-09-02T03:46:24.658Z,7.90
2018-09-02T03:48:53.950Z,6.70
2018-09-02T03:51:23.959Z,7.00
2018-09-02T03:53:52.453Z,7.00
2018-09-02T03:56:20.881Z,6.30
2018-09-02T03:58:49.340Z,6.50
2018-09-02T04:01:17.907Z,5.83
2018-09-02T04:03:46.412Z,7.17
2018-09-02T04:06:14.909Z,6.70
2018-09-02T04:08:43.288Z,6.17
2018-09-02T04:11:11.903Z,6.13
2018-09-02T04:13:40.576Z,5.70
2018-09-02T04:16:09.122Z,7.93
2018-09-02T04:18:37.631Z,5.70
2018-09-02T04:21:06.302Z,4.93
2018-09-02T04:23:34.797Z,5.87
2018-09-02T04:26:03.276Z,6.20
2018-09-02T04:28:31.729Z,5.40
2018-09-02T04:31:00.190Z,5.57
2018-09-02T04:33:28.653Z,5.50
2018-09-02T04:35:57.345Z,5.60
2018-09-02T04:38:25.848Z,6.00
2018-09-02T04:40:55.041Z,5.30
2018-09-02T04:43:24.481Z,6.63
2018-09-02T04:45:53.803Z,6.90
2018-09-02T04:48:22.815Z,6.67
2018-09-02T04:50:51.424Z,6.93
2018-09-02T04:53:19.810Z,7.57
2018-09-02T04:55:48.397Z,6.67
2018-09-02T04:58:17.222Z,6.67
2018-09-02T05:00:45.657Z,6.87
2018-09-02T05:03:14.162Z,6.90
2018-09-02T05:05:42.691Z,7.03
2018-09-02T05:08:11.198Z,6.67
2018-09-02T05:10:39.692Z,6.50
2018-09-02T05:13:08.197Z,6.40
2018-09-02T05:15:36.774Z,6.37
2018-09-02T05:18:05.515Z,6.10
2018-09-02T05:20:34.270Z,6.00
2018-09-02T05:23:02.777Z,6.57
2018-09-02T05:25:31.319Z,6.73
2018-09-02T05:27:59.885Z,6.40
2018-09-02T05:30:28.477Z,5.97
2018-09-02T05:32:56.981Z,6.93
2018-09-02T05:35:25.406Z,6.87
2018-09-02T05:37:54.126Z,6.90
2018-09-02T05:40:23.287Z,6.40
2018-09-02T05:42:51.820Z,6.80
2018-09-02T05:45:20.536Z,7.20
2018-09-02T05:47:49.003Z,7.00
2018-09-02T05:50:17.626Z,6.90
2018-09-02T05:52:46.120Z,6.97
2018-09-02T05:55:14.672Z,7.10
2018-09-02T05:57:43.225Z,7.17
2018-09-02T06:00:11.840Z,6.97
2018-09-02T06:02:40.318Z,8.17
2018-09-02T06:05:09.219Z,7.27
2018-09-02T06:07:37.631Z,8.10
2018-09-02T06:10:06.550Z,7.13
2018-09-02T06:12:35.087Z,6.77
2018-09-02T06:15:03.943Z,7.30
2018-09-02T06:17:32.422Z,7.90
2018-09-02T06:20:00.900Z,6.97
2018-09-02T06:22:29.361Z,6.90
2018-09-02T06:24:57.884Z,7.20
2018-09-02T06:27:26.373Z,7.30
2018-09-02T06:29:54.934Z,7.40
2018-09-02T06:32:24.729Z,6.97
2018-09-02T06:34:53.441Z,6.77
2018-09-02T06:37:21.930Z,7.77
2018-09-02T06:39:50.477Z,7.03
2018-09-02T06:42:18.957Z,7.10
2018-09-02T06:44:47.511Z,6.53
2018-09-02T06:47:16.163Z,7.20
2018-09-02T06:49:44.607Z,6.70
2018-09-02T06:52:13.018Z,7.37
2018-09-02T06:54:41.568Z,6.30
2018-09-02T06:57:09.990Z,7.00
2018-09-02T06:59:38.469Z,6.00
2018-09-02T07:02:06.953Z,6.87
2018-09-02T07:04:35.382Z,6.60
2018-09-02T07:07:03.838Z,6.20
2018-09-02T07:09:32.377Z,6.57
2018-09-02T07:12:00.852Z,5.83
2018-09-02T07:14:29.491Z,7.20
2018-09-02T07:16:58.031Z,7.30
2018-09-02T07:19:26.469Z,7.20
2018-09-02T07:21:55.629Z,7.80
2018-09-02T07:24:24.823Z,7.93
2018-09-02T07:26:53.569Z,7.17
2018-09-02T07:29:22.076Z,7.20
2018-09-02T07:31:50.511Z,6.70
2018-09-02T07:34:19.008Z,6.93
2018-09-02T07:36:47.843Z,6.50
2018-09-02T07:39:16.407Z,6.27
2018-09-02T07:41:44.850Z,5.80
2018-09-02T07:44:13.357Z,6.17
2018-09-02T07:46:41.952Z,5.53
2018-09-02T07:49:10.487Z,5.90
2018-09-02T07:51:38.963Z,6.17
2018-09-02T07:54:07.336Z,6.00
2018-09-02T07:56:35.794Z,5.67
2018-09-02T07:59:04.296Z,5.40
2018-09-02T08:01:32.761Z,5.17
2018-09-02T08:04:01.233Z,5.20
2018-09-02T08:06:29.798Z,5.60
2018-09-02T08:08:58.177Z,6.00
2018-09-02T08:11:26.689Z,5.33
2018-09-02T08:13:55.937Z,5.00
2018-09-02T08:16:24.981Z,5.03
2018-09-02T08:18:53.707Z,4.73
2018-09-02T08:21:22.179Z,4.77
2018-09-02T08:23:50.651Z,5.27
2018-09-02T08:26:19.063Z,5.77
2018-09-02T08:28:47.660Z,5.20
2018-09-02T08:32:40.694Z,5.70
2018-09-02T08:35:09.167Z,4.17
2018-09-02T08:37:37.656Z,4.83
2018-09-02T08:40:06.352Z,5.10
2018-09-02T08:42:34.892Z,4.50
2018-09-02T08:45:03.374Z,4.63
2018-09-02T08:47:31.860Z,4.70
2018-09-02T08:50:00.315Z,4.23
2018-09-02T08:52:28.882Z,4.20
2018-09-02T08:54:57.367Z,4.10
2018-09-02T08:57:26.333Z,4.87
2018-09-02T08:59:55.420Z,5.20
2018-09-02T09:02:24.046Z,4.77
2018-09-02T09:04:52.508Z,4.73
2018-09-02T09:07:21.037Z,4.63
2018-09-02T09:09:49.788Z,5.10
2018-09-02T09:12:18.311Z,5.13
2018-09-02T09:14:46.869Z,5.10
2018-09-02T09:17:15.341Z,4.77
2018-09-02T09:19:44.010Z,5.13
2018-09-02T09:22:12.543Z,4.77
2018-09-02T09:24:41.413Z,4.80
2018-09-02T09:27:09.835Z,4.60
2018-09-02T09:29:38.326Z,4.10
2018-09-02T09:32:07.468Z,4.50
2018-09-02T09:34:36.351Z,4.07
2018-09-02T09:37:04.844Z,4.27
2018-09-02T09:39:33.246Z,4.70
2018-09-02T09:42:01.638Z,4.40
2018-09-02T09:44:30.232Z,4.63
2018-09-02T09:46:58.723Z,4.03
2018-09-02T09:49:27.303Z,4.50
2018-09-02T09:51:56.453Z,4.80
2018-09-02T09:54:25.706Z,4.77
2018-09-02T09:56:54.411Z,4.20
2018-09-02T09:59:22.895Z,4.07
2018-09-02T10:01:51.309Z,4.20
2018-09-02T10:04:19.858Z,3.80
2018-09-02T10:06:48.283Z,4.30
2018-09-02T10:09:16.787Z,3.90
2018-09-02T10:11:45.407Z,3.77
2018-09-02T10:14:14.049Z,3.80
2018-09-02T10:16:42.482Z,3.80
2018-09-02T10:19:11.032Z,4.17
2018-09-02T10:21:39.510Z,3.90
2018-09-02T10:24:07.941Z,4.43
2018-09-02T10:26:36.314Z,4.00
2018-09-02T10:29:04.906Z,4.53
2018-09-02T10:31:33.326Z,5.13
2018-09-02T10:34:01.804Z,4.77
2018-09-02T10:36:30.239Z,5.10
2018-09-02T10:38:58.741Z,4.40
2018-09-02T10:41:27.306Z,4.37
2018-09-02T10:43:56.562Z,3.67
2018-09-02T10:46:24.979Z,3.83
2018-09-02T10:48:54.231Z,3.80
2018-09-02T10:51:22.627Z,4.87
2018-09-02T10:53:51.188Z,4.73
2018-09-02T10:56:19.622Z,4.60
2018-09-02T10:58:48.121Z,3.93
2018-09-02T11:01:16.568Z,5.00
2018-09-02T11:03:45.023Z,4.37
2018-09-02T11:06:13.458Z,5.03
2018-09-02T11:08:42.032Z,4.10
2018-09-02T11:11:10.961Z,4.23
2018-09-02T11:13:39.874Z,4.13
2018-09-02T11:16:08.323Z,4.27
2018-09-02T11:18:36.822Z,3.90
2018-09-02T11:21:05.444Z,4.30
2018-09-02T11:23:33.938Z,4.63
2018-09-02T11:26:02.398Z,4.93
2018-09-02T11:28:30.938Z,5.53
2018-09-02T11:30:59.318Z,5.83
2018-09-02T11:33:27.913Z,5.30
2018-09-02T11:35:57.077Z,5.03
2018-09-02T11:44:11.759Z,5.83
2018-09-02T11:46:40.291Z,5.60
2018-09-02T11:49:08.914Z,4.93
2018-09-02T11:51:37.599Z,6.33
2018-09-02T11:54:06.645Z,5.27
2018-09-02T11:56:35.127Z,5.83
2018-09-02T11:59:04.135Z,6.03
2018-09-02T12:01:32.614Z,6.27
2018-09-02T12:04:01.300Z,5.53
2018-09-02T12:06:29.808Z,7.07
2018-09-02T12:08:58.260Z,5.67
2018-09-02T12:11:27.388Z,5.40
2018-09-02T12:13:55.948Z,5.57
2018-09-02T12:16:25.304Z,5.87
2018-09-02T12:18:54.469Z,6.57
2018-09-02T12:21:22.915Z,7.30
2018-09-02T12:23:51.506Z,7.70
2018-09-02T12:26:20.020Z,6.13
2018-09-02T12:28:48.591Z,6.13
2018-09-02T12:31:17.044Z,6.40
2018-09-02T12:33:45.568Z,6.60
2018-09-02T12:36:13.958Z,6.47
2018-09-02T12:38:42.541Z,7.17
2018-09-02T12:41:11.008Z,6.13
2018-09-02T12:43:39.488Z,8.23
2018-09-02T12:46:08.003Z,7.23
2018-09-02T12:48:37.037Z,6.50
2018-09-02T12:51:05.823Z,7.27
2018-09-02T12:53:34.291Z,6.73
2018-09-02T12:56:02.702Z,6.40
2018-09-02T12:58:31.175Z,6.90
2018-09-02T13:00:59.684Z,6.00
2018-09-02T13:03:28.212Z,6.13
2018-09-02T13:05:57.572Z,5.80
2018-09-02T13:08:26.182Z,5.70
2018-09-02T13:10:55.261Z,5.57
2018-09-02T13:13:23.752Z,6.10
2018-09-02T13:15:52.199Z,6.00
2018-09-02T13:18:20.718Z,6.40
2018-09-02T13:20:49.146Z,6.20
2018-09-02T13:23:17.757Z,6.33
2018-09-02T13:25:46.156Z,6.37
2018-09-02T13:28:14.677Z,6.57
2018-09-02T13:30:43.098Z,6.23
2018-09-02T13:33:11.592Z,6.23
2018-09-02T13:35:40.069Z,5.73
2018-09-02T13:38:08.643Z,5.73
2018-09-02T13:40:37.434Z,5.60
2018-09-02T13:43:06.436Z,5.20
2018-09-02T13:45:35.002Z,5.63
2018-09-02T13:48:03.575Z,5.07
2018-09-02T13:50:31.940Z,5.03
2018-09-02T13:53:00.476Z,5.03
2018-09-02T13:55:29.229Z,4.90
2018-09-02T13:57:57.635Z,5.30
2018-09-02T14:00:26.781Z,4.47
2018-09-02T14:02:56.036Z,4.47
2018-09-02T14:05:25.152Z,4.07
2018-09-02T14:07:54.889Z,4.10
2018-09-02T14:10:23.529Z,3.80
2018-09-02T14:12:52.094Z,3.83
2018-09-02T14:15:20.664Z,3.97
2018-09-02T14:17:49.195Z,4.07
2018-09-02T14:20:17.747Z,3.40
2018-09-02T14:22:46.301Z,3.07
2018-09-02T14:25:14.887Z,3.00
2018-09-02T14:27:43.243Z,2.83
2018-09-02T14:30:11.860Z,2.70
2018-09-02T14:32:40.382Z,2.40
2018-09-02T14:35:08.887Z,2.60
2018-09-02T14:37:37.300Z,2.57
2018-09-02T14:40:05.817Z,2.43
2018-09-02T14:42:34.209Z,2.60
2018-09-02T14:45:03.185Z,2.57
2018-09-02T14:47:31.780Z,2.40
2018-09-02T14:50:00.269Z,2.60
2018-09-02T14:52:28.758Z,2.60
2018-09-02T14:54:57.339Z,2.60
2018-09-02T14:57:26.486Z,2.33
2018-09-02T14:59:55.643Z,2.60
2018-09-02T15:02:24.399Z,2.73
2018-09-02T15:04:52.899Z,2.40
2018-09-02T15:07:21.373Z,2.40
2018-09-02T15:09:49.855Z,2.47
2018-09-02T15:12:18.317Z,3.23
2018-09-02T15:14:46.840Z,2.90
2018-09-02T15:17:15.281Z,2.80
2018-09-02T15:19:43.854Z,2.60
2018-09-02T15:22:12.264Z,2.30
2018-09-02T15:24:40.731Z,2.73
2018-09-02T15:27:09.227Z,2.63
2018-09-02T15:29:37.922Z,2.60
2018-09-02T15:32:06.298Z,2.13
2018-09-02T15:34:34.773Z,2.23
2018-09-02T15:37:03.225Z,2.77
2018-09-02T15:39:31.754Z,2.80
2018-09-02T15:42:00.358Z,2.70
2018-09-02T15:44:28.840Z,2.87
2018-09-02T15:46:57.408Z,2.90
2018-09-02T15:49:26.894Z,3.10
2018-09-02T15:51:55.978Z,3.07
2018-09-02T15:54:24.540Z,2.73
2018-09-02T15:56:52.946Z,2.60
2018-09-02T15:59:21.465Z,3.20
2018-09-02T16:01:49.928Z,3.20
2018-09-02T16:04:18.397Z,3.20
2018-09-02T16:06:46.816Z,3.03
2018-09-02T16:09:15.311Z,3.70
2018-09-02T16:11:43.746Z,3.23
2018-09-02T16:14:12.205Z,3.30
2018-09-02T16:16:40.907Z,3.30
2018-09-02T16:19:09.461Z,3.20
2018-09-02T16:21:38.376Z,3.30
2018-09-02T16:24:07.122Z,3.17
2018-09-02T16:26:35.649Z,3.20
2018-09-02T16:29:04.126Z,2.73
2018-09-02T16:31:32.755Z,2.50
2018-09-02T16:34:01.195Z,2.40
2018-09-02T16:36:29.618Z,2.50
2018-09-02T16:38:58.165Z,2.40
2018-09-02T16:41:27.658Z,2.10
2018-09-02T16:43:56.335Z,1.90
2018-09-02T16:46:24.828Z,2.20
2018-09-02T16:48:53.424Z,2.10
2018-09-02T16:51:21.817Z,2.27
2018-09-02T16:53:50.356Z,2.20
2018-09-02T16:56:18.881Z,2.17
2018-09-02T16:58:47.379Z,1.70
2018-09-02T17:01:15.818Z,1.50
2018-09-02T17:03:47.490Z,1.40
2018-09-02T17:06:16.013Z,1.97
2018-09-02T17:08:44.956Z,2.50
2018-09-02T17:11:13.416Z,2.80
2018-09-02T17:13:41.835Z,3.30
2018-09-02T17:16:10.259Z,3.50
2018-09-02T17:18:38.684Z,3.30
2018-09-02T17:21:07.051Z,4.00
2018-09-02T17:23:35.567Z,4.13
2018-09-02T17:26:03.948Z,3.50
2018-09-02T17:28:32.572Z,4.27
2018-09-02T17:31:00.992Z,4.07
2018-09-02T17:33:29.451Z,4.77
2018-09-02T17:35:57.887Z,4.13
2018-09-02T17:38:26.347Z,4.27
2018-09-02T17:40:54.734Z,4.10
2018-09-02T17:43:23.163Z,4.00
2018-09-02T17:45:51.669Z,3.50
2018-09-02T17:48:20.189Z,3.70
2018-09-02T17:50:48.610Z,3.80
2018-09-02T17:53:17.075Z,3.83
2018-09-02T17:55:45.496Z,4.10
2018-09-02T17:58:14.150Z,3.90
2018-09-02T18:00:45.783Z,3.73
2018-09-02T18:03:14.188Z,5.10
2018-09-02T18:05:42.639Z,4.00
2018-09-02T18:08:11.213Z,3.53
2018-09-02T18:10:39.875Z,4.40
2018-09-02T18:13:08.331Z,4.00
2018-09-02T18:15:36.725Z,3.90
2018-09-02T18:18:05.385Z,3.53
2018-09-02T18:20:34.519Z,3.40
2018-09-02T18:23:03.928Z,3.60
2018-09-02T18:25:32.387Z,3.10
2018-09-02T18:28:03.893Z,2.50
2018-09-02T18:30:32.372Z,2.50
2018-09-02T18:33:00.891Z,2.27
2018-09-02T18:35:29.315Z,2.00
2018-09-02T18:37:57.871Z,2.10
2018-09-02T18:40:26.318Z,2.00
2018-09-02T18:42:54.829Z,2.20
2018-09-02T18:45:23.271Z,2.57
2018-09-02T18:47:51.963Z,2.10
2018-09-02T18:50:20.447Z,3.20
2018-09-02T18:52:49.130Z,3.33
2018-09-02T18:55:17.633Z,3.30
2018-09-02T18:57:46.140Z,4.43
2018-09-02T19:00:14.611Z,3.80
2018-09-02T19:02:43.213Z,4.17
2018-09-02T19:05:11.890Z,5.90
2018-09-02T19:07:40.544Z,4.87
2018-09-02T19:10:08.959Z,4.70
2018-09-02T19:12:37.535Z,4.60
2018-09-02T19:15:06.463Z,5.23
2018-09-02T19:17:34.981Z,5.03
2018-09-02T19:20:04.029Z,4.90
2018-09-02T19:22:33.256Z,5.20
2018-09-02T19:25:02.331Z,5.50
2018-09-02T19:27:30.874Z,5.63
2018-09-02T19:29:59.299Z,5.50
2018-09-02T19:32:28.191Z,6.50
2018-09-02T19:34:56.637Z,6.07
2018-09-02T19:37:25.181Z,7.57
2018-09-02T19:39:53.585Z,8.00
2018-09-02T19:42:22.051Z,6.50
2018-09-02T19:44:50.797Z,7.00
2018-09-02T19:47:19.367Z,8.37
2018-09-02T19:49:47.901Z,6.70
2018-09-02T19:52:16.390Z,7.00
2018-09-02T19:54:44.902Z,6.43
2018-09-02T19:57:13.452Z,6.57
2018-09-02T19:59:41.929Z,6.13
2018-09-02T20:02:10.484Z,6.40
2018-09-02T20:04:38.914Z,6.07
2018-09-02T20:07:07.430Z,6.33
2018-09-02T20:09:35.847Z,6.40
2018-09-02T20:12:04.850Z,6.83
2018-09-02T20:14:33.991Z,6.57
2018-09-02T20:17:02.903Z,6.43
2018-09-02T20:19:31.660Z,6.60
2018-09-02T20:22:00.189Z,6.80
2018-09-02T20:24:28.667Z,6.70
2018-09-02T20:26:57.235Z,7.30
2018-09-02T20:29:25.671Z,6.60
2018-09-02T20:31:54.114Z,7.70
2018-09-02T20:34:22.622Z,7.83
2018-09-02T20:36:51.113Z,7.30
2018-09-02T20:39:19.564Z,7.43
2018-09-02T20:41:49.170Z,7.47
2018-09-02T20:44:17.666Z,7.27
2018-09-02T20:46:46.154Z,7.00
2018-09-02T20:49:14.558Z,6.97
2018-09-02T20:51:43.113Z,6.63
2018-09-02T20:54:11.600Z,6.57
2018-09-02T20:56:40.045Z,7.17
2018-09-02T20:59:08.505Z,8.00
2018-09-02T21:01:37.133Z,7.50
2018-09-02T21:04:05.677Z,7.33
2018-09-02T21:06:35.292Z,7.20
2018-09-02T21:09:06.457Z,7.30
2018-09-02T21:11:34.978Z,6.30
2018-09-02T21:14:03.518Z,5.47
2018-09-02T21:16:32.871Z,7.00
2018-09-02T21:19:01.571Z,7.50
2018-09-02T21:21:30.007Z,6.00
2018-09-02T21:23:58.474Z,5.80
2018-09-02T21:26:27.004Z,6.20
2018-09-02T21:28:55.410Z,6.07
2018-09-02T21:31:23.948Z,5.77
2018-09-02T21:33:52.363Z,6.37
2018-09-02T21:36:20.861Z,6.20
2018-09-02T21:38:49.319Z,6.67
2018-09-02T21:41:17.754Z,6.30
2018-09-02T21:43:46.188Z,7.30
2018-09-02T21:46:14.622Z,6.83
2018-09-02T21:48:43.120Z,7.80
2018-09-02T21:51:11.692Z,7.07
2018-09-02T21:53:40.651Z,7.03
2018-09-02T21:56:09.042Z,6.77
2018-09-02T21:58:37.503Z,6.30
2018-09-02T22:01:06.332Z,6.80
2018-09-02T22:03:34.770Z,6.60
2018-09-02T22:06:03.529Z,6.70
2018-09-02T22:08:32.015Z,7.07
2018-09-02T22:11:00.514Z,6.90
2018-09-02T22:13:28.947Z,6.23
2018-09-02T22:15:57.437Z,6.20
2018-09-02T22:18:26.029Z,6.27
2018-09-02T22:20:54.502Z,6.00
2018-09-02T22:23:22.906Z,6.00
2018-09-02T22:25:51.366Z,5.73
2018-09-02T22:28:19.778Z,5.60
2018-09-02T22:30:48.256Z,5.50
2018-09-02T22:33:16.815Z,5.30
2018-09-02T22:35:45.274Z,5.47
2018-09-02T22:38:14.511Z,5.30
2018-09-02T22:40:43.331Z,4.97
2018-09-02T22:43:11.779Z,4.70
2018-09-02T22:45:40.170Z,4.03
2018-09-02T22:48:08.732Z,4.07
2018-09-02T22:50:37.146Z,3.90
2018-09-02T22:53:05.650Z,3.60
2018-09-02T22:55:34.233Z,3.30
2018-09-02T22:58:05.127Z,3.13
2018-09-02T23:00:34.556Z,3.80
2018-09-02T23:03:03.790Z,5.10
2018-09-02T23:05:32.591Z,5.73
2018-09-02T23:08:00.984Z,6.87
2018-09-02T23:10:29.575Z,7.13
2018-09-02T23:12:58.075Z,6.50
2018-09-02T23:15:26.634Z,6.20
2018-09-02T23:17:55.056Z,5.93
2018-09-02T23:20:23.576Z,5.50
2018-09-02T23:22:52.152Z,5.97
2018-09-02T23:25:20.708Z,5.20
2018-09-02T23:27:49.156Z,5.00
2018-09-02T23:30:17.683Z,5.87
2018-09-02T23:32:46.139Z,5.40
2018-09-02T23:35:14.661Z,5.57
2018-09-02T23:37:43.151Z,5.00
2018-09-02T23:40:11.662Z,5.93
2018-09-02T23:42:40.033Z,5.43
2018-09-02T23:45:08.666Z,5.73
2018-09-02T23:47:37.074Z,5.17
2018-09-02T23:50:06.154Z,6.40
2018-09-02T23:52:34.590Z,6.40
2018-09-02T23:55:03.856Z,6.13
2018-09-02T23:57:32.970Z,8.10
